Time;durP1;ratioP1;P1;durP2;ratioP2;P2;SDS_P1;SDS_P2;PMS_P1;PMS_P2;Temp;Humidity;BMP_temperature;BMP_pressure;BME280_temperature;BME280_humidity;BME280_pressure;Samples;Min_cycle;Max_cycle;Signal;HPM_P1;HPM_P2
2022/07/21 00:01:38;;;;;;;;;;;;;;;32.05;51.10;98123.88;5140466;27;19963;-60
2022/07/21 00:04:04;;;;;;;;;;;;;;;32.15;51.23;98138.03;5144542;27;19934;-60
2022/07/21 00:06:31;;;;;;;;;;;;;;;32.02;51.11;98130.16;5145290;27;20130;-61
2022/07/21 00:08:58;;;;;;;;;;;;;;;31.90;51.59;98138.88;5143134;27;19939;-61
2022/07/21 00:11:25;;;;;;;;;;;;;;;32.04;51.46;98140.81;5141449;27;19927;-61
2022/07/21 00:13:51;;;;;;;;;;;;;;;31.96;51.22;98137.28;5141467;27;19962;-60
2022/07/21 00:16:17;;;;;;;;;;;;;;;31.70;51.81;98137.72;5141554;27;19924;-62
2022/07/21 00:18:44;;;;;;;;;;;;;;;31.70;51.75;98123.13;5141263;27;19943;-60
2022/07/21 00:21:10;;;;;;;;;;;;;;;31.49;51.74;98124.72;5133123;27;19947;-60
2022/07/21 00:23:36;;;;;;;;;;;;;;;31.57;52.07;98124.72;5140280;27;19931;-61
2022/07/21 00:26:04;;;;;;;;;;;;;;;31.68;51.64;98137.34;5143879;27;19924;-60
2022/07/21 00:28:30;;;;;;;;;;;;;;;31.79;51.43;98140.84;5144752;27;19938;-62
2022/07/21 00:30:57;;;;;;;;;;;;;;;31.69;51.27;98138.13;5142913;27;19951;-61
2022/07/21 00:33:23;;;;;;;;;;;;;;;31.80;51.04;98138.88;5141128;27;19930;-60
2022/07/21 00:35:49;;;;;;;;;;;;;;;31.77;51.21;98136.91;5141819;27;19979;-61
2022/07/21 00:38:16;;;;;;;;;;;;;;;31.82;51.08;98130.97;5144715;27;19924;-61
2022/07/21 00:40:42;;;;;;;;;;;;;;;31.37;51.68;98127.88;5144381;27;19958;-61
2022/07/21 00:43:10;;;;;;;;;;;;;;;31.38;51.65;98112.88;5136068;27;19924;-61
2022/07/21 00:45:37;;;;;;;;;;;;;;;31.38;51.58;98095.53;5144231;27;19975;-60
2022/07/21 00:48:03;;;;;;;;;;;;;;;30.92;52.10;98078.94;5141446;27;19923;-60
2022/07/21 00:50:30;;;;;;;;;;;;;;;30.31;53.51;98057.91;5140748;27;19924;-60
2022/07/21 00:52:57;;;;;;;;;;;;;;;29.50;56.44;98033.53;5142313;27;19966;-60
2022/07/21 00:55:24;;;;;;;;;;;;;;;28.93;59.86;98022.13;5144153;27;19939;-59
2022/07/21 00:57:51;;;;;;;;;;;;;;;29.12;59.47;98034.06;5143052;27;19938;-60
2022/07/21 01:00:20;;;;;;;;;;;;;;;29.55;58.53;98046.16;5140485;27;20150;-61
2022/07/21 01:02:46;;;;;;;;;;;;;;;29.16;59.13;98034.84;5140515;27;19919;-61
2022/07/21 01:05:14;;;;;;;;;;;;;;;29.28;59.23;98038.09;5144029;27;19958;-60
2022/07/21 01:07:41;;;;;;;;;;;;;;;30.08;56.91;98052.75;5144042;27;19953;-61
2022/07/21 01:10:08;;;;;;;;;;;;;;;30.55;55.38;98057.22;5140588;27;19945;-60
2022/07/21 01:12:34;;;;;;;;;;;;;;;30.84;54.08;98069.88;5139073;27;19983;-61
2022/07/21 01:15:00;;;;;;;;;;;;;;;31.09;53.33;98064.41;5142601;27;20161;-61
2022/07/21 01:17:28;;;;;;;;;;;;;;;31.25;52.95;98062.03;5143784;27;20015;-60
2022/07/21 01:19:55;;;;;;;;;;;;;;;31.33;52.44;98057.28;5142128;27;19924;-61
2022/07/21 01:22:22;;;;;;;;;;;;;;;30.88;53.40;98043.09;5140160;27;19946;-61
2022/07/21 01:24:49;;;;;;;;;;;;;;;30.05;55.76;98038.97;5140625;27;19920;-61
2022/07/21 01:27:15;;;;;;;;;;;;;;;29.77;57.06;98045.88;5143675;27;19947;-60
2022/07/21 01:29:41;;;;;;;;;;;;;;;29.58;58.30;98034.38;5143361;27;19931;-60
2022/07/21 01:32:08;;;;;;;;;;;;;;;29.35;59.76;98032.66;5140002;27;19934;-60
2022/07/21 01:34:34;;;;;;;;;;;;;;;29.17;60.81;98022.69;5140034;27;19931;-61
2022/07/21 01:37:00;;;;;;;;;;;;;;;28.88;62.93;97997.72;5142168;27;20050;-61
2022/07/21 01:42:12;;;;;;;;;;;;;;;29.41;60.59;97981.59;5130551;27;19949;-60
2022/07/21 01:44:38;;;;;;;;;;;;;;;29.22;61.88;97976.34;5139646;27;19924;-60
2022/07/21 01:47:05;;;;;;;;;;;;;;;28.99;62.83;97956.56;5142701;27;19934;-60
2022/07/21 01:49:31;;;;;;;;;;;;;;;29.46;61.34;97955.69;5143351;27;20002;-60
2022/07/21 01:51:57;;;;;;;;;;;;;;;28.98;62.78;97967.94;5141151;27;19928;-60
2022/07/21 01:54:24;;;;;;;;;;;;;;;29.47;61.13;97987.53;5139565;27;19931;-60
2022/07/21 01:56:52;;;;;;;;;;;;;;;29.84;59.49;97988.13;5140296;27;19960;-60
2022/07/21 01:59:18;;;;;;;;;;;;;;;30.19;57.95;97989.41;5143031;27;19969;-61
2022/07/21 02:01:45;;;;;;;;;;;;;;;30.40;57.17;97981.22;5142739;27;19977;-60
2022/07/21 02:04:11;;;;;;;;;;;;;;;30.56;56.52;97978.06;5139178;27;19924;-59
2022/07/21 02:06:38;;;;;;;;;;;;;;;30.59;56.23;97975.31;5139223;27;19930;-60
2022/07/21 02:09:04;;;;;;;;;;;;;;;29.94;58.31;97970.06;5141878;27;20707;-60
2022/07/21 02:11:30;;;;;;;;;;;;;;;30.11;57.75;97972.09;5142769;27;19932;-60
2022/07/21 02:13:58;;;;;;;;;;;;;;;30.47;56.66;97984.78;5139537;27;19924;-60
2022/07/21 02:16:24;;;;;;;;;;;;;;;30.72;55.77;97984.78;5138993;27;19943;-60
2022/07/21 02:18:51;;;;;;;;;;;;;;;30.90;55.33;97999.34;5140157;27;20415;-60
2022/07/21 02:21:17;;;;;;;;;;;;;;;30.96;55.16;98019.09;5142641;27;19951;-60
2022/07/21 02:23:44;;;;;;;;;;;;;;;30.94;55.20;98040.72;5142573;27;19951;-61
2022/07/21 02:26:10;;;;;;;;;;;;;;;30.94;55.33;98044.31;5130830;27;19928;-59
2022/07/21 02:28:37;;;;;;;;;;;;;;;30.95;55.38;98043.09;5139171;27;19926;-60
2022/07/21 02:31:04;;;;;;;;;;;;;;;30.87;55.13;98052.53;5141523;27;19923;-60
2022/07/21 02:33:31;;;;;;;;;;;;;;;30.88;55.36;98051.38;5142508;27;19959;-59
2022/07/21 02:35:57;;;;;;;;;;;;;;;30.87;55.21;98049.78;5140591;27;20004;-60
2022/07/21 02:38:24;;;;;;;;;;;;;;;30.92;55.01;98052.16;5138801;27;19924;-60
2022/07/21 02:40:50;;;;;;;;;;;;;;;30.86;55.22;98048.19;5139660;27;19959;-61
2022/07/21 02:43:16;;;;;;;;;;;;;;;30.86;55.13;98053.72;5141255;27;20539;-60
2022/07/21 02:45:44;;;;;;;;;;;;;;;30.84;55.12;98056.09;5142052;27;19963;-60
2022/07/21 02:48:12;;;;;;;;;;;;;;;30.91;55.06;98058.84;5130734;28;19952;-61
2022/07/21 02:50:42;;;;;;;;;;;;;;;30.96;55.01;98058.50;5138613;28;20327;-60
2022/07/21 02:53:09;;;;;;;;;;;;;;;30.91;55.87;98075.41;5142092;28;19923;-61
2022/07/21 02:55:35;;;;;;;;;;;;;;;30.82;56.17;98076.97;5142352;28;19934;-61
2022/07/21 02:58:06;;;;;;;;;;;;;;;30.74;56.75;98078.91;5139508;28;19955;-61
2022/07/21 03:00:32;;;;;;;;;;;;;;;30.82;56.70;98080.53;5138562;28;20289;-60
2022/07/21 03:02:59;;;;;;;;;;;;;;;30.92;56.35;98087.19;5140517;28;19984;-60
2022/07/21 03:05:27;;;;;;;;;;;;;;;30.85;56.20;98078.94;5142055;28;19923;-60
2022/07/21 03:07:53;;;;;;;;;;;;;;;30.87;55.99;98088.41;5140773;28;19923;-60
2022/07/21 03:10:19;;;;;;;;;;;;;;;30.92;55.73;98079.72;5138481;28;20307;-59
2022/07/21 03:12:46;;;;;;;;;;;;;;;30.64;55.30;98085.19;5137121;28;19974;-60
2022/07/21 03:15:12;;;;;;;;;;;;;;;30.80;55.66;98080.09;5142105;28;19924;-60
2022/07/21 03:17:38;;;;;;;;;;;;;;;30.79;55.29;98075.78;5141817;28;19990;-60
2022/07/21 03:20:05;;;;;;;;;;;;;;;30.66;55.43;98076.53;5139006;28;20437;-60
2022/07/21 03:22:33;;;;;;;;;;;;;;;30.63;55.75;98091.13;5138385;28;19970;-60
2022/07/21 03:24:59;;;;;;;;;;;;;;;30.56;55.71;98097.41;5140459;28;19983;-60
2022/07/21 03:27:26;;;;;;;;;;;;;;;30.47;55.64;98088.72;5142452;27;19974;-60
2022/07/21 03:29:52;;;;;;;;;;;;;;;30.56;55.72;98104.88;5144716;27;19988;-61
2022/07/21 03:32:18;;;;;;;;;;;;;;;30.63;55.46;98108.44;5142220;27;19974;-60
2022/07/21 03:34:45;;;;;;;;;;;;;;;30.57;55.29;98112.75;5142380;27;19924;-60
2022/07/21 03:37:11;;;;;;;;;;;;;;;30.24;56.11;98118.50;5145894;27;19923;-59
2022/07/21 03:39:39;;;;;;;;;;;;;;;30.44;56.08;98119.81;5145707;27;19934;-60
2022/07/21 03:42:06;;;;;;;;;;;;;;;30.39;56.08;98122.94;5141323;27;19924;-61
2022/07/21 03:44:32;;;;;;;;;;;;;;;30.34;56.31;98121.31;5141749;27;19924;-60
2022/07/21 03:46:59;;;;;;;;;;;;;;;30.40;56.31;98124.50;5143828;27;19995;-60
2022/07/21 03:49:25;;;;;;;;;;;;;;;30.24;56.98;98126.75;5145691;27;19942;-60
2022/07/21 03:51:52;;;;;;;;;;;;;;;30.16;57.25;98125.16;5144469;27;20413;-60
2022/07/21 03:54:18;;;;;;;;;;;;;;;30.04;57.31;98128.25;5142284;27;19924;-60
2022/07/21 03:56:46;;;;;;;;;;;;;;;30.19;58.00;98127.16;5141942;27;19924;-60
2022/07/21 03:59:12;;;;;;;;;;;;;;;30.29;57.73;98131.91;5133933;27;19924;-60
2022/07/21 04:01:38;;;;;;;;;;;;;;;30.32;57.64;98136.66;5141681;27;19951;-61
2022/07/21 04:04:05;;;;;;;;;;;;;;;30.03;58.54;98135.72;5144744;27;19995;-60
2022/07/21 04:06:31;;;;;;;;;;;;;;;30.29;58.36;98140.97;5145423;27;19995;-60
2022/07/21 04:08:58;;;;;;;;;;;;;;;30.19;58.88;98147.22;5143412;27;19923;-60
2022/07/21 04:11:24;;;;;;;;;;;;;;;30.28;58.90;98146.88;5141782;27;19987;-59
2022/07/21 04:13:52;;;;;;;;;;;;;;;30.35;58.71;98141.41;5141521;27;19977;-60
2022/07/21 04:16:18;;;;;;;;;;;;;;;30.28;59.27;98147.66;5141805;27;19923;-60
2022/07/21 04:18:44;;;;;;;;;;;;;;;30.01;59.71;98146.34;5141513;27;19931;-61
2022/07/21 04:21:11;;;;;;;;;;;;;;;30.17;59.87;98151.56;5133201;27;19969;-60
2022/07/21 04:23:37;;;;;;;;;;;;;;;30.22;60.32;98151.97;5141434;27;19919;-59
2022/07/21 04:26:03;;;;;;;;;;;;;;;30.16;60.87;98145.25;5144140;27;19970;-61
2022/07/21 04:28:30;;;;;;;;;;;;;;;30.24;60.96;98157.06;5144621;27;20381;-60
2022/07/21 04:30:57;;;;;;;;;;;;;;;30.23;61.65;98153.56;5143020;27;19923;-60
2022/07/21 04:33:24;;;;;;;;;;;;;;;30.29;61.42;98164.97;5141087;27;19958;-60
2022/07/21 04:35:50;;;;;;;;;;;;;;;30.31;61.29;98168.94;5141700;27;19952;-61
2022/07/21 04:38:18;;;;;;;;;;;;;;;30.38;61.13;98154.41;5144447;27;19925;-60
2022/07/21 04:40:44;;;;;;;;;;;;;;;30.30;61.49;98148.06;5144495;27;19924;-60
2022/07/21 04:43:11;;;;;;;;;;;;;;;30.22;61.85;98151.97;5128846;27;19958;-60
2022/07/21 04:45:37;;;;;;;;;;;;;;;30.27;61.81;98159.06;5144137;27;19924;-61
2022/07/21 04:48:05;;;;;;;;;;;;;;;30.14;62.12;98153.13;5141633;27;19969;-59
2022/07/21 04:50:32;;;;;;;;;;;;;;;30.04;63.40;98151.09;5140704;27;19935;-60
2022/07/21 04:52:59;;;;;;;;;;;;;;;29.91;64.46;98145.09;5142504;27;19920;-61
2022/07/21 04:55:26;;;;;;;;;;;;;;;29.97;64.80;98151.84;5144013;27;19923;-59
2022/07/21 04:57:53;;;;;;;;;;;;;;;29.77;68.51;98177.25;5142790;27;20396;-61
2022/07/21 05:00:21;;;;;;;;;;;;;;;29.82;70.02;98198.94;5140563;27;19968;-61
2022/07/21 05:02:47;;;;;;;;;;;;;;;29.84;74.36;98200.13;5140630;27;19924;-59
2022/07/21 05:05:15;;;;;;;;;;;;;;;29.89;76.19;98183.25;5143861;27;19923;-59
2022/07/21 05:07:42;;;;;;;;;;;;;;;29.89;75.76;98180.50;5143773;27;19954;-60
2022/07/21 05:10:09;;;;;;;;;;;;;;;29.68;77.97;98183.06;5140286;27;19963;-61
2022/07/21 05:12:35;;;;;;;;;;;;;;;29.88;75.97;98191.91;5138875;27;19986;-61
2022/07/21 05:15:02;;;;;;;;;;;;;;;29.99;77.50;98201.00;5142450;27;20118;-61
2022/07/21 05:17:28;;;;;;;;;;;;;;;30.18;76.11;98206.25;5143823;27;19924;-59
2022/07/21 05:19:54;;;;;;;;;;;;;;;30.26;75.56;98207.88;5142079;27;19923;-61
2022/07/21 05:22:22;;;;;;;;;;;;;;;30.26;74.83;98210.63;5140186;27;19945;-60
2022/07/21 05:24:49;;;;;;;;;;;;;;;29.96;75.56;98218.28;5140506;27;19966;-61
2022/07/21 05:27:15;;;;;;;;;;;;;;;30.20;74.04;98216.91;5143760;27;19924;-60
2022/07/21 05:29:41;;;;;;;;;;;;;;;30.09;73.68;98211.31;5143687;27;19961;-60
2022/07/21 05:32:08;;;;;;;;;;;;;;;30.13;73.69;98216.84;5140281;27;20160;-60
2022/07/21 05:34:34;;;;;;;;;;;;;;;30.05;73.72;98229.00;5139877;27;19924;-60
2022/07/21 05:37:01;;;;;;;;;;;;;;;30.21;72.15;98232.22;5141989;27;20029;-61
2022/07/21 05:39:29;;;;;;;;;;;;;;;30.01;73.33;98239.19;5143529;27;20015;-61
2022/07/21 05:41:55;;;;;;;;;;;;;;;29.63;76.62;98249.50;5140121;27;19927;-61
2022/07/21 05:44:21;;;;;;;;;;;;;;;29.64;76.16;98253.03;5139539;27;19973;-60
2022/07/21 05:46:48;;;;;;;;;;;;;;;29.63;77.44;98241.22;5139801;27;19924;-60
2022/07/21 05:49:14;;;;;;;;;;;;;;;29.83;75.86;98234.31;5143250;27;19923;-60
2022/07/21 05:51:40;;;;;;;;;;;;;;;29.81;76.15;98246.88;5142618;27;19979;-62
2022/07/21 05:54:07;;;;;;;;;;;;;;;29.96;75.17;98254.91;5140035;27;19974;-60
2022/07/21 05:56:34;;;;;;;;;;;;;;;29.98;75.39;98258.06;5139662;27;19934;-60
2022/07/21 05:59:01;;;;;;;;;;;;;;;29.84;75.82;98265.41;5141772;27;19943;-60
2022/07/21 06:01:27;;;;;;;;;;;;;;;29.85;76.28;98251.28;5143039;27;19919;-60
2022/07/21 06:03:54;;;;;;;;;;;;;;;30.05;75.01;98254.56;5141587;27;19930;-60
2022/07/21 06:06:20;;;;;;;;;;;;;;;29.50;79.50;98264.69;5139472;27;19931;-60
2022/07/21 06:08:47;;;;;;;;;;;;;;;29.08;82.25;98281.53;5139472;27;20441;-60
2022/07/21 06:11:15;;;;;;;;;;;;;;;29.40;80.07;98277.19;5142809;27;19945;-60
2022/07/21 06:13:42;;;;;;;;;;;;;;;29.61;79.15;98284.06;5141075;27;19930;-60
2022/07/21 06:16:09;;;;;;;;;;;;;;;29.70;78.40;98287.28;5139276;27;19951;-60
2022/07/21 06:18:36;;;;;;;;;;;;;;;29.71;78.36;98292.41;5139249;27;19930;-59
2022/07/21 06:21:03;;;;;;;;;;;;;;;29.49;80.29;98293.41;5141299;27;20156;-60
2022/07/21 06:23:29;;;;;;;;;;;;;;;29.19;82.01;98287.13;5142566;27;19931;-61
2022/07/21 06:25:56;;;;;;;;;;;;;;;28.84;84.24;98290.28;5140897;27;19919;-60
2022/07/21 06:28:22;;;;;;;;;;;;;;;29.22;81.90;98300.13;5139080;27;20357;-61
2022/07/21 06:30:52;;;;;;;;;;;;;;;29.46;80.37;98305.16;5139398;27;19951;-61
2022/07/21 06:33:18;;;;;;;;;;;;;;;29.46;82.28;98297.69;5142578;27;19923;-59
2022/07/21 06:35:44;;;;;;;;;;;;;;;29.50;84.25;98285.91;5142325;27;19935;-60
2022/07/21 06:38:11;;;;;;;;;;;;;;;29.11;87.23;98288.22;5130578;27;19980;-60
2022/07/21 06:40:37;;;;;;;;;;;;;;;28.29;93.22;98314.59;5138789;27;20007;-60
2022/07/21 06:43:04;;;;;;;;;;;;;;;28.93;88.63;98335.56;5139925;27;19935;-60
2022/07/21 06:45:30;;;;;;;;;;;;;;;29.25;88.01;98333.22;5141933;27;19931;-60
2022/07/21 06:48:01;;;;;;;;;;;;;;;29.00;90.25;98334.84;5140427;27;19923;-60
2022/07/21 06:50:28;;;;;;;;;;;;;;;29.10;89.81;98322.41;5138855;28;19930;-60
2022/07/21 06:52:54;;;;;;;;;;;;;;;29.26;89.25;98320.25;5139831;28;19920;-60
2022/07/21 06:55:20;;;;;;;;;;;;;;;29.31;89.15;98314.41;5142164;28;19935;-60
2022/07/21 06:57:47;;;;;;;;;;;;;;;29.30;89.54;98316.41;5141955;28;19923;-59
2022/07/21 07:00:13;;;;;;;;;;;;;;;28.84;93.67;98304.03;5138650;28;19924;-60
2022/07/21 07:02:40;;;;;;;;;;;;;;;27.79;100.00;98302.00;5141118;27;19992;-60
2022/07/21 07:05:08;;;;;;;;;;;;;;;26.93;100.00;98299.94;5145711;27;19923;-59
2022/07/21 07:07:34;;;;;;;;;;;;;;;27.43;100.00;98302.53;5146047;27;19923;-60
2022/07/21 07:10:02;;;;;;;;;;;;;;;27.77;100.00;98301.56;5144060;27;19966;-60
2022/07/21 07:12:28;;;;;;;;;;;;;;;27.48;100.00;98310.44;5141068;27;19924;-60
2022/07/21 07:14:55;;;;;;;;;;;;;;;27.30;100.00;98309.28;5143762;27;19974;-59
2022/07/21 07:17:21;;;;;;;;;;;;;;;28.08;100.00;98316.22;5146344;27;19994;-59
2022/07/21 07:19:48;;;;;;;;;;;;;;;28.28;100.00;98313.03;5145734;27;19962;-59
2022/07/21 07:22:16;;;;;;;;;;;;;;;28.56;100.00;98307.16;5142424;27;19924;-59
2022/07/21 07:24:42;;;;;;;;;;;;;;;28.47;100.00;98314.88;5142384;27;19974;-60
2022/07/21 07:27:09;;;;;;;;;;;;;;;28.70;100.00;98323.84;5145879;27;19924;-59
2022/07/21 07:29:35;;;;;;;;;;;;;;;28.35;100.00;98324.09;5146052;27;19995;-60
2022/07/21 07:32:02;;;;;;;;;;;;;;;27.76;100.00;98327.44;5143475;27;19966;-60
2022/07/21 07:34:28;;;;;;;;;;;;;;;28.17;100.00;98331.28;5142435;27;19965;-60
2022/07/21 07:36:54;;;;;;;;;;;;;;;28.38;100.00;98325.31;5143441;27;19983;-60
2022/07/21 07:39:22;;;;;;;;;;;;;;;28.68;100.00;98311.66;5146032;27;19961;-60
2022/07/21 07:41:48;;;;;;;;;;;;;;;28.86;100.00;98320.94;5143515;27;19923;-61
2022/07/21 07:44:15;;;;;;;;;;;;;;;29.01;98.79;98328.19;5141928;27;19924;-61
2022/07/21 07:46:41;;;;;;;;;;;;;;;29.12;97.64;98329.09;5141922;27;19965;-61
2022/07/21 07:49:07;;;;;;;;;;;;;;;28.96;98.13;98339.53;5145168;27;19970;-61
2022/07/21 07:51:34;;;;;;;;;;;;;;;28.29;100.00;98338.53;5145731;27;19927;-61
2022/07/21 07:54:03;;;;;;;;;;;;;;;27.79;100.00;98342.41;5143051;27;20010;-61
2022/07/21 07:56:31;;;;;;;;;;;;;;;27.55;100.00;98337.22;5141854;27;19973;-60
2022/07/21 07:58:57;;;;;;;;;;;;;;;28.00;100.00;98336.47;5143272;27;19928;-60
2022/07/21 08:01:23;;;;;;;;;;;;;;;28.21;100.00;98329.41;5145266;27;19966;-60
2022/07/21 08:03:50;;;;;;;;;;;;;;;28.45;100.00;98330.13;5144547;27;19927;-60
2022/07/21 08:06:16;;;;;;;;;;;;;;;28.13;100.00;98326.91;5141595;27;19961;-61
2022/07/21 08:08:42;;;;;;;;;;;;;;;28.31;100.00;98331.53;5141610;27;20022;-60
2022/07/21 08:11:09;;;;;;;;;;;;;;;28.82;100.00;98339.31;5144896;27;19934;-60
2022/07/21 08:13:37;;;;;;;;;;;;;;;29.11;98.50;98343.25;5142848;27;19961;-60
2022/07/21 08:16:03;;;;;;;;;;;;;;;29.27;97.50;98349.38;5142396;27;19958;-60
2022/07/21 08:18:30;;;;;;;;;;;;;;;29.27;96.86;98352.13;5141454;27;19930;-60
2022/07/21 08:20:56;;;;;;;;;;;;;;;29.33;94.08;98359.66;5142839;27;19969;-60
2022/07/21 08:23:22;;;;;;;;;;;;;;;29.35;93.46;98357.31;5145052;27;19930;-60
2022/07/21 08:25:49;;;;;;;;;;;;;;;29.25;94.73;98354.44;5143063;27;19923;-60
2022/07/21 08:28:16;;;;;;;;;;;;;;;29.36;93.00;98369.13;5141330;27;19987;-61
2022/07/21 08:30:44;;;;;;;;;;;;;;;29.27;93.39;98372.16;5141146;27;20442;-60
2022/07/21 08:33:10;;;;;;;;;;;;;;;29.27;93.60;98374.91;5144797;27;19983;-60
2022/07/21 08:35:36;;;;;;;;;;;;;;;29.31;92.20;98370.22;5143382;27;19991;-61
2022/07/21 08:38:04;;;;;;;;;;;;;;;29.40;90.38;98380.97;5142144;27;19962;-60
2022/07/21 08:40:31;;;;;;;;;;;;;;;29.35;91.77;98373.03;5141146;27;19947;-60
2022/07/21 08:42:58;;;;;;;;;;;;;;;29.32;92.31;98379.28;5140905;27;19930;-60
2022/07/21 08:45:25;;;;;;;;;;;;;;;29.42;91.81;98384.94;5144547;27;19934;-60
2022/07/21 08:47:53;;;;;;;;;;;;;;;29.37;91.66;98377.00;5143622;27;19955;-62
2022/07/21 08:50:20;;;;;;;;;;;;;;;29.33;91.54;98375.38;5140857;27;19966;-61
2022/07/21 08:52:46;;;;;;;;;;;;;;;29.43;91.72;98381.00;5140676;27;19927;-61
2022/07/21 08:55:12;;;;;;;;;;;;;;;29.46;91.67;98380.22;5144384;27;19950;-60
2022/07/21 08:57:39;;;;;;;;;;;;;;;29.45;91.79;98397.13;5144327;27;19923;-60
2022/07/21 09:00:06;;;;;;;;;;;;;;;29.43;91.85;98391.22;5141582;27;19947;-61
2022/07/21 09:02:34;;;;;;;;;;;;;;;29.42;91.37;98389.63;5140610;27;19978;-60
2022/07/21 09:05:04;;;;;;;;;;;;;;;29.33;92.42;98387.19;5142930;27;20006;-61
2022/07/21 09:07:46;;;;;;;;;;;;;;;29.32;92.00;98390.28;5144488;27;19999;-60
2022/07/21 09:10:13;;;;;;;;;;;;;;;29.28;92.30;98384.75;5132560;27;19991;-59
2022/07/21 09:12:49;;;;;;;;;;;;;;;29.38;91.17;98394.28;5139089;27;19928;-59
2022/07/21 09:15:16;;;;;;;;;;;;;;;29.26;92.28;98389.03;5132958;27;19979;-59
2022/07/21 09:17:43;;;;;;;;;;;;;;;29.37;91.26;98393.50;5140591;27;19934;-61
2022/07/21 09:20:23;;;;;;;;;;;;;;;29.38;90.55;98397.03;5143962;27;19931;-61
2022/07/21 09:23:01;;;;;;;;;;;;;;;29.11;90.92;98395.50;5143147;27;19930;-60
2022/07/21 09:25:35;;;;;;;;;;;;;;;29.29;90.57;98396.53;5139100;27;19974;-60
2022/07/21 09:28:07;;;;;;;;;;;;;;;29.29;90.84;98393.78;5142269;27;19934;-61
2022/07/21 09:30:47;;;;;;;;;;;;;;;29.13;91.98;98382.94;5143644;27;19957;-60
2022/07/21 09:33:19;;;;;;;;;;;;;;;29.12;92.26;98392.34;5132053;27;19992;-61
2022/07/21 09:35:53;;;;;;;;;;;;;;;29.13;94.51;98393.94;5139956;27;20048;-61
2022/07/21 09:38:19;;;;;;;;;;;;;;;29.30;94.87;98392.63;5132640;27;20055;-60
2022/07/21 09:40:47;;;;;;;;;;;;;;;28.81;98.26;98388.00;5139768;27;20528;-60
2022/07/21 09:43:28;;;;;;;;;;;;;;;28.71;100.00;98387.88;5141768;27;19970;-61
2022/07/21 09:45:54;;;;;;;;;;;;;;;28.99;98.49;98393.78;5141758;27;19932;-61
2022/07/21 09:48:31;;;;;;;;;;;;;;;29.09;97.67;98393.09;5139758;27;19938;-60
2022/07/21 09:51:19;;;;;;;;;;;;;;;29.15;97.89;98386.13;5141251;27;19923;-60
2022/07/21 09:53:49;;;;;;;;;;;;;;;29.28;97.25;98384.75;5143091;27;19927;-61
2022/07/21 09:56:16;;;;;;;;;;;;;;;29.30;97.58;98387.94;5131972;27;20022;-61
2022/07/21 09:58:42;;;;;;;;;;;;;;;29.41;96.71;98388.03;5139712;27;19924;-61
2022/07/21 10:01:09;;;;;;;;;;;;;;;29.44;96.67;98387.28;5142860;27;19923;-60
2022/07/21 10:03:36;;;;;;;;;;;;;;;29.36;97.07;98385.63;5143260;27;19927;-61
2022/07/21 10:06:04;;;;;;;;;;;;;;;29.27;97.26;98396.13;5140742;27;19934;-60
2022/07/21 10:08:30;;;;;;;;;;;;;;;29.03;99.20;98391.09;5139638;27;19930;-59
2022/07/21 10:10:57;;;;;;;;;;;;;;;28.74;100.00;98390.69;5141179;27;19991;-61
2022/07/21 10:13:24;;;;;;;;;;;;;;;28.77;100.00;98397.38;5141576;27;19945;-60
2022/07/21 10:15:51;;;;;;;;;;;;;;;28.65;98.39;98395.66;5142451;27;19963;-60
2022/07/21 10:18:18;;;;;;;;;;;;;;;28.37;100.00;98415.22;5139543;27;19987;-61
2022/07/21 10:20:47;;;;;;;;;;;;;;;28.47;100.00;98411.03;5139498;27;19955;-61
2022/07/21 10:23:17;;;;;;;;;;;;;;;28.63;100.00;98405.38;5131275;27;19923;-59
2022/07/21 10:25:45;;;;;;;;;;;;;;;28.89;97.84;98408.97;5139229;27;19970;-60
2022/07/21 10:28:12;;;;;;;;;;;;;;;28.85;96.94;98413.59;5131020;27;20426;-60
2022/07/21 10:30:39;;;;;;;;;;;;;;;28.89;96.94;98408.16;5139290;27;19961;-60
2022/07/21 10:33:06;;;;;;;;;;;;;;;28.87;96.70;98403.03;5142039;27;19931;-60
2022/07/21 10:35:32;;;;;;;;;;;;;;;28.90;96.18;98401.50;5142823;27;19991;-60
2022/07/21 10:37:59;;;;;;;;;;;;;;;28.92;96.34;98410.97;5140462;27;19923;-61
2022/07/21 10:40:37;;;;;;;;;;;;;;;28.87;96.22;98405.78;5139290;27;19955;-60
2022/07/21 10:43:21;;;;;;;;;;;;;;;28.96;95.63;98400.03;5139944;27;19927;-61
2022/07/21 10:45:47;;;;;;;;;;;;;;;28.90;95.54;98399.56;5141861;28;20014;-60
2022/07/21 10:48:31;;;;;;;;;;;;;;;28.98;94.81;98394.94;5138425;27;20408;-61
2022/07/21 10:50:58;;;;;;;;;;;;;;;29.08;94.07;98401.75;5140197;28;19924;-61
2022/07/21 10:53:25;;;;;;;;;;;;;;;29.17;93.51;98394.00;5142660;28;19992;-61
2022/07/21 10:55:54;;;;;;;;;;;;;;;29.33;92.26;98402.88;5141708;28;19923;-59
2022/07/21 10:58:30;;;;;;;;;;;;;;;29.11;94.04;98396.28;5139208;28;19924;-61
2022/07/21 11:00:58;;;;;;;;;;;;;;;29.31;92.52;98405.19;5140560;28;19991;-60
2022/07/21 11:03:26;;;;;;;;;;;;;;;29.35;92.14;98400.53;5142646;28;19930;-61
2022/07/21 11:06:11;;;;;;;;;;;;;;;29.09;93.16;98397.84;5141555;28;19924;-61
2022/07/21 11:08:39;;;;;;;;;;;;;;;28.90;94.56;98399.56;5138915;28;19949;-61
2022/07/21 11:11:10;;;;;;;;;;;;;;;29.08;93.51;98396.25;5141802;28;19959;-60
2022/07/21 11:13:51;;;;;;;;;;;;;;;28.92;92.64;98410.97;5140717;28;19991;-60
2022/07/21 11:16:17;;;;;;;;;;;;;;;29.11;92.54;98401.78;5131121;28;19924;-60
2022/07/21 11:18:44;;;;;;;;;;;;;;;28.82;93.40;98399.81;5138947;28;19934;-59
2022/07/21 11:21:11;;;;;;;;;;;;;;;28.79;94.47;98393.09;5142058;28;20014;-60
2022/07/21 11:23:39;;;;;;;;;;;;;;;28.71;95.02;98388.69;5142289;28;20020;-60
2022/07/21 11:26:05;;;;;;;;;;;;;;;28.92;94.29;98394.47;5139420;28;19928;-60
2022/07/21 11:28:33;;;;;;;;;;;;;;;29.00;93.96;98405.56;5137515;28;19931;-60
2022/07/21 11:31:14;;;;;;;;;;;;;;;28.99;93.52;98403.97;5140533;28;19931;-60
2022/07/21 11:33:41;;;;;;;;;;;;;;;28.86;94.21;98404.19;5142160;28;19923;-60
2022/07/21 11:36:08;;;;;;;;;;;;;;;28.50;94.73;98404.00;5139106;28;19979;-60
2022/07/21 11:38:35;;;;;;;;;;;;;;;28.77;93.13;98398.19;5138617;28;19924;-59
2022/07/21 11:41:14;;;;;;;;;;;;;;;28.93;92.54;98400.75;5140610;28;19927;-60
2022/07/21 11:43:43;;;;;;;;;;;;;;;28.57;95.74;98404.91;5140327;28;19924;-60
2022/07/21 11:46:09;;;;;;;;;;;;;;;28.64;95.00;98407.78;5138481;28;19924;-59
2022/07/21 11:48:35;;;;;;;;;;;;;;;28.53;98.79;98408.78;5139297;27;19958;-61
2022/07/21 11:51:02;;;;;;;;;;;;;;;28.73;97.04;98408.31;5144401;27;19983;-60
2022/07/21 11:53:28;;;;;;;;;;;;;;;28.86;96.76;98412.44;5145873;27;19923;-60
2022/07/21 11:55:55;;;;;;;;;;;;;;;28.89;97.23;98405.41;5144570;27;19985;-61
2022/07/21 11:58:21;;;;;;;;;;;;;;;28.86;96.58;98398.72;5141889;27;19924;-60
2022/07/21 12:00:49;;;;;;;;;;;;;;;28.94;96.03;98396.84;5142166;27;19934;-59
2022/07/21 12:03:15;;;;;;;;;;;;;;;28.74;95.24;98396.19;5143960;27;19963;-63
2022/07/21 12:05:42;;;;;;;;;;;;;;;28.59;97.19;98396.31;5145530;27;19923;-59
2022/07/21 12:08:09;;;;;;;;;;;;;;;28.40;99.52;98394.44;5142183;27;19995;-59
2022/07/21 12:10:37;;;;;;;;;;;;;;;28.28;100.00;98389.94;5141789;27;19975;-60
2022/07/21 12:13:04;;;;;;;;;;;;;;;28.31;100.00;98385.66;5142259;27;19987;-59
2022/07/21 12:15:33;;;;;;;;;;;;;;;27.85;100.00;98388.34;5145246;27;19923;-59
2022/07/21 12:18:02;;;;;;;;;;;;;;;27.74;100.00;98386.59;5143017;27;20612;-60
2022/07/21 12:20:30;;;;;;;;;;;;;;;28.03;100.00;98387.91;5141601;27;19982;-60
2022/07/21 12:22:57;;;;;;;;;;;;;;;28.39;99.07;98381.84;5142786;27;19971;-61
2022/07/21 12:25:31;;;;;;;;;;;;;;;28.12;99.85;98383.78;5144882;27;19939;-60
2022/07/21 12:27:57;;;;;;;;;;;;;;;28.05;100.00;98386.41;5143351;27;19923;-60
2022/07/21 12:30:31;;;;;;;;;;;;;;;27.59;100.00;98373.75;5141564;27;20031;-61
2022/07/21 12:33:03;;;;;;;;;;;;;;;27.94;100.00;98371.66;5142828;27;19924;-59
2022/07/21 12:35:30;;;;;;;;;;;;;;;28.35;98.11;98365.31;5144887;27;19920;-60
2022/07/21 12:37:57;;;;;;;;;;;;;;;28.42;97.17;98367.38;5143334;27;19930;-60
2022/07/21 12:40:25;;;;;;;;;;;;;;;28.68;94.95;98367.44;5141489;27;19919;-60
2022/07/21 12:42:52;;;;;;;;;;;;;;;28.59;96.29;98368.81;5140194;27;19924;-60
2022/07/21 12:45:19;;;;;;;;;;;;;;;28.86;93.94;98362.97;5144513;27;19931;-59
2022/07/21 12:48:01;;;;;;;;;;;;;;;28.99;92.50;98359.97;5144571;27;19945;-60
2022/07/21 12:50:28;;;;;;;;;;;;;;;27.84;99.91;98350.31;5134598;27;19935;-59